createdAt,value
2022-08-17T00:04:34.973Z,93.96
2022-08-17T00:14:39.841Z,93.84
2022-08-17T00:24:45.266Z,93.73
2022-08-17T00:35:10.140Z,94.34
2022-08-17T00:45:53.904Z,95.14
2022-08-17T00:56:01.930Z,95.32
2022-08-17T01:06:08.826Z,95.66
2022-08-17T01:16:33.117Z,95.54
2022-08-17T01:26:41.517Z,96.21
2022-08-17T01:47:22.991Z,97.28
2022-08-17T01:57:56.619Z,97.41
2022-08-17T02:18:39.953Z,97.16
2022-08-17T02:29:06.938Z,97.69
2022-08-17T02:39:41.430Z,97.86
2022-08-17T02:49:54.073Z,97.60
2022-08-17T03:00:42.633Z,97.66
2022-08-17T03:11:20.542Z,98.20
2022-08-17T03:22:19.833Z,99.52
2022-08-17T03:33:16.007Z,99.97
2022-08-17T03:44:26.485Z,100.00
2022-08-17T03:54:59.470Z,100.00
2022-08-17T04:05:50.042Z,100.00
2022-08-17T04:16:38.917Z,100.00
2022-08-17T04:26:52.781Z,100.00
2022-08-17T04:37:20.692Z,100.00
2022-08-17T04:47:30.220Z,100.00
2022-08-17T04:57:39.450Z,100.00
2022-08-17T05:07:51.587Z,100.00
2022-08-17T05:17:55.603Z,99.93
2022-08-17T05:27:58.485Z,98.35
2022-08-17T05:38:25.318Z,97.94
2022-08-17T05:48:49.945Z,95.54
2022-08-17T05:59:16.045Z,92.95
2022-08-17T06:10:09.498Z,92.38
2022-08-17T06:20:17.599Z,90.24
2022-08-17T06:30:57.350Z,89.66
2022-08-17T06:41:08.897Z,88.82
2022-08-17T06:51:35.348Z,88.09
2022-08-17T07:01:42.680Z,87.58
2022-08-17T07:12:01.098Z,86.22
2022-08-17T07:22:57.493Z,84.45
2022-08-17T07:33:21.894Z,83.12
2022-08-17T07:43:49.291Z,79.78
2022-08-17T07:54:14.422Z,78.47
2022-08-17T08:15:11.776Z,75.61
2022-08-17T08:25:43.083Z,74.95
2022-08-17T08:35:55.077Z,73.17
2022-08-17T08:46:33.305Z,71.64
2022-08-17T08:57:29.202Z,70.45
2022-08-17T09:08:29.801Z,69.58
2022-08-17T09:18:59.895Z,68.84
2022-08-17T09:29:16.065Z,66.18
2022-08-17T09:39:36.492Z,65.42
2022-08-17T09:50:03.721Z,65.41
2022-08-17T10:00:44.702Z,63.11
2022-08-17T10:11:18.282Z,62.70
2022-08-17T10:22:00.591Z,63.82
2022-08-17T10:32:45.676Z,63.83
2022-08-17T10:43:28.936Z,63.09
2022-08-17T10:53:31.006Z,61.66
2022-08-17T11:03:33.395Z,60.97
2022-08-17T11:14:13.627Z,62.05
2022-08-17T11:24:30.249Z,61.05
2022-08-17T11:34:34.635Z,60.04
2022-08-17T11:45:19.360Z,59.57
2022-08-17T11:56:10.174Z,59.15
2022-08-17T12:06:56.664Z,58.47
2022-08-17T12:17:03.080Z,59.30
2022-08-17T12:27:10.892Z,57.99
2022-08-17T12:37:51.921Z,58.91
2022-08-17T12:48:18.209Z,58.25
2022-08-17T12:58:30.973Z,58.14
2022-08-17T13:08:49.761Z,57.44
2022-08-17T13:19:16.286Z,56.27
2022-08-17T13:29:23.385Z,54.72
2022-08-17T13:49:55.222Z,54.41
2022-08-17T14:00:35.253Z,56.00
2022-08-17T14:10:38.956Z,58.10
2022-08-17T14:20:42.712Z,58.01
2022-08-17T14:31:14.641Z,57.16
2022-08-17T14:42:26.662Z,57.14
2022-08-17T14:53:08.518Z,57.80
2022-08-17T15:03:23.145Z,57.22
2022-08-17T15:13:30.017Z,56.29
2022-08-17T15:23:32.499Z,57.65
2022-08-17T15:33:44.696Z,58.07
2022-08-17T16:06:01.518Z,60.35
2022-08-17T16:16:07.572Z,61.77
2022-08-17T16:26:10.024Z,63.56
2022-08-17T16:47:10.446Z,67.38
2022-08-17T16:57:24.756Z,68.10
2022-08-17T17:07:45.597Z,67.32
2022-08-17T17:18:21.243Z,65.58
2022-08-17T17:29:11.280Z,64.98
2022-08-17T17:39:44.391Z,65.45
2022-08-17T17:50:32.505Z,65.58
2022-08-17T18:01:44.205Z,67.15
2022-08-17T18:12:50.610Z,68.26
2022-08-17T18:22:53.111Z,69.90
2022-08-17T18:33:30.884Z,71.19
2022-08-17T18:43:44.090Z,72.60
2022-08-17T18:54:15.404Z,73.60
2022-08-17T19:04:34.661Z,74.26
2022-08-17T19:14:45.539Z,74.63
2022-08-17T19:25:02.776Z,75.79
2022-08-17T19:35:37.906Z,77.32
2022-08-17T19:57:34.502Z,78.34
2022-08-17T20:08:06.619Z,79.50
2022-08-17T20:18:51.230Z,80.07
2022-08-17T20:40:53.365Z,81.44
2022-08-17T20:51:23.125Z,81.82
2022-08-17T21:01:42.192Z,82.39
2022-08-17T21:12:35.089Z,83.19
2022-08-17T21:23:12.322Z,83.89
2022-08-17T21:33:42.642Z,84.86
2022-08-17T21:43:50.436Z,85.45
2022-08-17T21:54:29.496Z,85.77
2022-08-17T22:05:11.184Z,86.07
2022-08-17T22:15:39.760Z,85.87
2022-08-17T22:26:06.347Z,86.71
2022-08-17T22:36:47.578Z,87.49
2022-08-17T22:47:21.329Z,87.81
2022-08-17T22:57:59.135Z,88.08
2022-08-17T23:08:17.604Z,88.58
2022-08-17T23:18:31.403Z,89.01
2022-08-17T23:28:53.758Z,89.31
2022-08-17T23:39:07.607Z,89.37
2022-08-17T23:49:21.516Z,89.64
2022-08-17T23:59:27.143Z,89.67
